createdAt,value
2022-08-05T00:00:28.756Z,24.66
2022-08-05T00:03:03.868Z,24.63
2022-08-05T00:06:05.003Z,24.65
2022-08-05T00:08:34.879Z,24.58
2022-08-05T00:11:23.811Z,24.60
2022-08-05T00:14:02.193Z,24.64
2022-08-05T00:16:36.150Z,24.65
2022-08-05T00:19:07.384Z,24.53
2022-08-05T00:21:37.399Z,24.51
2022-08-05T00:24:18.906Z,24.46
2022-08-05T00:26:57.452Z,24.50
2022-08-05T00:29:37.661Z,24.45
2022-08-05T00:32:15.280Z,24.47
2022-08-05T00:35:03.424Z,24.38
2022-08-05T00:37:53.045Z,24.42
2022-08-05T00:40:29.644Z,24.43
2022-08-05T00:43:07.811Z,24.07
2022-08-05T00:45:43.774Z,24.12
2022-08-05T00:48:31.240Z,24.17
2022-08-05T00:51:08.957Z,24.23
2022-08-05T00:54:02.294Z,24.21
2022-08-05T00:56:32.783Z,24.23
2022-08-05T00:59:06.996Z,24.14
2022-08-05T01:01:48.182Z,24.24
2022-08-05T01:04:20.400Z,24.22
2022-08-05T01:06:56.811Z,24.12
2022-08-05T01:09:27.385Z,24.06
2022-08-05T01:12:09.381Z,24.10
2022-08-05T01:14:54.846Z,24.04
2022-08-05T01:17:30.719Z,24.10
2022-08-05T01:20:28.496Z,23.97
2022-08-05T01:23:14.993Z,23.82
2022-08-05T01:26:02.291Z,23.76
2022-08-05T01:28:39.939Z,23.78
2022-08-05T01:31:15.059Z,23.72
2022-08-05T01:33:51.947Z,23.68
2022-08-05T01:36:28.310Z,23.71
2022-08-05T01:39:01.026Z,23.77
2022-08-05T01:41:35.522Z,23.95
2022-08-05T01:44:11.167Z,24.14
2022-08-05T01:46:46.321Z,24.10
2022-08-05T01:49:23.996Z,23.99
2022-08-05T01:51:59.051Z,24.03
2022-08-05T01:54:34.991Z,24.10
2022-08-05T01:58:10.132Z,23.89
2022-08-05T02:00:14.384Z,23.87
2022-08-05T02:02:53.703Z,23.93
2022-08-05T02:05:28.633Z,23.97
2022-08-05T02:08:01.275Z,23.81
2022-08-05T02:10:37.661Z,23.83
2022-08-05T02:13:16.186Z,23.83
2022-08-05T02:15:56.798Z,23.86
2022-08-05T02:18:35.244Z,23.95
2022-08-05T02:21:15.134Z,23.86
2022-08-05T02:23:48.426Z,23.83
2022-08-05T02:26:30.253Z,23.89
2022-08-05T02:29:01.123Z,23.91
2022-08-05T02:31:38.577Z,23.88
2022-08-05T02:34:11.964Z,23.76
2022-08-05T02:36:45.653Z,23.74
2022-08-05T02:39:21.402Z,23.72
2022-08-05T02:42:00.475Z,23.62
2022-08-05T02:44:32.909Z,23.72
2022-08-05T02:47:08.038Z,23.81
2022-08-05T02:49:40.539Z,23.88
2022-08-05T02:52:13.666Z,23.93
2022-08-05T02:55:05.532Z,24.00
2022-08-05T02:58:11.377Z,24.04
2022-08-05T03:00:33.346Z,23.99
2022-08-05T03:03:10.171Z,23.96
2022-08-05T03:06:56.562Z,23.68
2022-08-05T03:08:32.934Z,23.76
2022-08-05T03:11:55.598Z,23.80
2022-08-05T03:14:03.124Z,23.78
2022-08-05T03:16:33.266Z,23.63
2022-08-05T03:19:17.263Z,23.61
2022-08-05T03:21:58.526Z,23.48
2022-08-05T03:24:30.802Z,23.26
2022-08-05T03:27:01.509Z,23.40
2022-08-05T03:29:45.734Z,23.41
2022-08-05T03:32:22.243Z,23.12
2022-08-05T03:35:04.460Z,23.21
2022-08-05T03:37:45.822Z,23.13
2022-08-05T03:40:31.379Z,23.19
2022-08-05T03:43:58.603Z,23.28
2022-08-05T03:45:57.469Z,23.02
2022-08-05T03:48:29.245Z,23.06
2022-08-05T03:52:37.445Z,23.19
2022-08-05T03:54:59.986Z,23.02
2022-08-05T03:56:52.657Z,22.85
2022-08-05T03:59:29.273Z,22.78
2022-08-05T04:02:39.140Z,22.46
2022-08-05T04:05:13.685Z,22.49
2022-08-05T04:07:57.771Z,22.31
2022-08-05T04:10:35.805Z,22.48
2022-08-05T04:13:09.118Z,22.46
2022-08-05T04:15:38.992Z,22.48
2022-08-05T04:18:26.146Z,22.46
2022-08-05T04:20:57.600Z,22.65
2022-08-05T04:24:04.716Z,22.57
2022-08-05T04:26:20.814Z,22.67
2022-08-05T04:28:52.102Z,22.70
2022-08-05T04:31:22.034Z,22.88
2022-08-05T04:34:31.306Z,22.74
2022-08-05T04:36:50.266Z,22.69
2022-08-05T04:39:23.509Z,22.57
2022-08-05T04:41:54.676Z,22.57
2022-08-05T04:44:29.651Z,22.58
2022-08-05T04:47:00.165Z,22.61
2022-08-05T04:50:01.623Z,22.50
2022-08-05T04:52:29.514Z,22.55
2022-08-05T04:55:14.612Z,22.48
2022-08-05T04:57:48.027Z,22.58
2022-08-05T05:00:23.311Z,22.56
2022-08-05T05:02:53.489Z,22.52
2022-08-05T05:05:28.124Z,22.44
2022-08-05T05:08:02.707Z,22.55
2022-08-05T05:10:42.138Z,22.59
2022-08-05T05:13:25.735Z,22.63
2022-08-05T05:16:05.973Z,22.60
2022-08-05T05:18:36.763Z,22.49
2022-08-05T05:21:06.780Z,22.58
2022-08-05T05:24:01.758Z,22.75
2022-08-05T05:26:32.734Z,23.12
2022-08-05T05:29:14.472Z,23.42
2022-08-05T05:31:46.390Z,23.53
2022-08-05T05:34:21.204Z,23.69
2022-08-05T05:36:56.345Z,24.19
2022-08-05T05:39:31.551Z,24.49
2022-08-05T05:42:07.554Z,24.79
2022-08-05T05:44:44.427Z,24.84
2022-08-05T05:47:30.257Z,24.70
2022-08-05T05:50:06.311Z,24.72
2022-08-05T05:52:38.137Z,24.66
2022-08-05T05:55:13.641Z,24.79
2022-08-05T05:57:52.154Z,24.87
2022-08-05T06:00:31.459Z,24.91
2022-08-05T06:03:39.671Z,24.89
2022-08-05T06:05:55.550Z,24.86
2022-08-05T06:08:31.645Z,24.88
2022-08-05T06:11:02.822Z,25.00
2022-08-05T06:13:40.811Z,25.17
2022-08-05T06:16:29.541Z,25.57
2022-08-05T06:19:05.429Z,25.97
2022-08-05T06:21:38.679Z,25.77
2022-08-05T06:24:12.853Z,25.53
2022-08-05T06:26:51.425Z,25.55
2022-08-05T06:29:49.594Z,25.52
2022-08-05T06:32:26.091Z,25.56
2022-08-05T06:34:59.698Z,25.60
2022-08-05T06:37:56.546Z,25.67
2022-08-05T06:40:27.933Z,25.83
2022-08-05T06:42:57.783Z,25.95
2022-08-05T06:45:44.753Z,26.06
2022-08-05T06:48:50.403Z,26.26
2022-08-05T06:51:12.042Z,26.35
2022-08-05T06:53:53.832Z,26.49
2022-08-05T06:56:26.768Z,26.58
2022-08-05T06:58:56.787Z,26.62
2022-08-05T07:01:32.591Z,26.74
2022-08-05T07:04:03.141Z,26.88
2022-08-05T07:06:33.748Z,27.00
2022-08-05T07:09:04.729Z,27.18
2022-08-05T07:11:36.950Z,27.23
2022-08-05T07:14:20.735Z,27.29
2022-08-05T07:17:58.406Z,27.47
2022-08-05T07:22:43.980Z,27.23
2022-08-05T07:25:54.103Z,27.13
2022-08-05T07:28:08.290Z,27.24
2022-08-05T07:30:41.446Z,27.37
2022-08-05T07:33:17.219Z,27.47
2022-08-05T07:36:01.813Z,27.49
2022-08-05T07:38:43.270Z,27.54
2022-08-05T07:41:35.183Z,27.53
2022-08-05T07:44:14.410Z,27.47
2022-08-05T07:46:50.015Z,27.55
2022-08-05T07:49:22.684Z,27.75
2022-08-05T07:51:54.194Z,27.81
2022-08-05T07:54:31.305Z,27.74
2022-08-05T07:57:18.050Z,27.70
2022-08-05T07:59:54.298Z,27.81
2022-08-05T08:02:31.233Z,27.96
2022-08-05T08:05:21.352Z,28.03
2022-08-05T08:07:59.953Z,28.13
2022-08-05T08:10:30.545Z,28.13
2022-08-05T08:13:01.623Z,28.21
2022-08-05T08:16:33.366Z,28.22
2022-08-05T08:18:21.378Z,28.22
2022-08-05T08:21:01.907Z,28.31
2022-08-05T08:24:01.606Z,28.40
2022-08-05T08:26:26.914Z,28.47
2022-08-05T08:29:21.712Z,28.45
2022-08-05T08:31:49.361Z,28.59
2022-08-05T08:34:19.033Z,28.54
2022-08-05T08:37:05.057Z,28.56
2022-08-05T08:39:37.695Z,28.66
2022-08-05T08:42:32.535Z,28.85
2022-08-05T08:45:23.212Z,28.87
2022-08-05T08:48:11.719Z,28.98
2022-08-05T08:51:03.116Z,28.99
2022-08-05T08:53:40.243Z,29.12
2022-08-05T08:56:15.134Z,29.34
2022-08-05T08:58:47.987Z,29.44
2022-08-05T09:01:19.762Z,29.66
2022-08-05T09:03:55.333Z,29.86
2022-08-05T09:06:30.092Z,30.01
2022-08-05T09:09:04.205Z,30.12
2022-08-05T09:11:51.111Z,30.11
2022-08-05T09:14:57.620Z,30.27
2022-08-05T09:17:40.105Z,30.42
2022-08-05T09:20:05.969Z,30.42
2022-08-05T09:23:09.467Z,30.51
2022-08-05T09:25:59.992Z,30.82
2022-08-05T09:28:33.742Z,30.71
2022-08-05T09:31:43.824Z,30.79
2022-08-05T09:33:59.333Z,30.98
2022-08-05T09:36:53.920Z,31.16
2022-08-05T09:39:39.179Z,31.11
2022-08-05T09:42:24.039Z,31.07
2022-08-05T09:45:17.468Z,31.11
2022-08-05T09:47:56.117Z,31.33
2022-08-05T09:50:44.247Z,31.16
2022-08-05T09:53:25.840Z,31.38
2022-08-05T09:56:03.989Z,31.28
2022-08-05T09:58:37.403Z,31.09
2022-08-05T10:01:31.937Z,31.21
2022-08-05T10:04:10.540Z,31.22
2022-08-05T10:06:49.954Z,31.55
2022-08-05T10:09:28.077Z,31.65
2022-08-05T10:12:30.238Z,31.79
2022-08-05T10:15:34.309Z,31.95
2022-08-05T10:18:16.642Z,32.07
2022-08-05T10:20:49.630Z,32.09
2022-08-05T10:23:55.209Z,32.12
2022-08-05T10:26:13.953Z,32.10
2022-08-05T10:28:46.200Z,32.18
2022-08-05T10:32:50.847Z,31.98
2022-08-05T10:34:11.182Z,32.44
2022-08-05T10:36:42.910Z,32.81
2022-08-05T10:39:25.038Z,33.12
2022-08-05T10:42:14.980Z,33.20
2022-08-05T10:44:49.047Z,33.39
2022-08-05T10:47:25.958Z,33.53
2022-08-05T10:50:33.061Z,33.64
2022-08-05T10:53:01.791Z,33.62
2022-08-05T10:55:32.870Z,33.63
2022-08-05T10:58:22.537Z,33.71
2022-08-05T11:01:12.198Z,33.77
2022-08-05T11:04:03.218Z,34.10
2022-08-05T11:07:00.548Z,33.98
2022-08-05T11:09:46.091Z,33.71
2022-08-05T11:12:54.208Z,33.71
2022-08-05T11:16:01.194Z,33.65
2022-08-05T11:18:32.425Z,33.73
2022-08-05T11:21:11.463Z,33.42
2022-08-05T11:24:03.947Z,33.27
2022-08-05T11:26:43.369Z,33.44
2022-08-05T11:29:47.181Z,33.70
2022-08-05T11:32:28.517Z,33.99
2022-08-05T11:34:58.873Z,34.26
2022-08-05T11:38:30.794Z,34.16
2022-08-05T11:41:34.500Z,34.38
2022-08-05T11:44:07.535Z,34.34
2022-08-05T11:47:10.171Z,34.47
2022-08-05T11:49:29.407Z,34.29
2022-08-05T11:52:11.364Z,34.62
2022-08-05T11:54:43.631Z,34.69
2022-08-05T11:57:39.296Z,34.32
2022-08-05T12:00:38.020Z,34.10
2022-08-05T12:03:31.620Z,34.08
2022-08-05T12:06:10.007Z,34.27
2022-08-05T12:08:50.911Z,33.24
2022-08-05T12:11:23.186Z,33.76
2022-08-05T12:13:58.694Z,34.12
2022-08-05T12:16:39.331Z,34.18
2022-08-05T12:19:11.011Z,34.21
2022-08-05T12:22:01.283Z,34.41
2022-08-05T12:24:31.108Z,34.39
2022-08-05T12:27:00.947Z,34.36
2022-08-05T12:29:40.166Z,34.54
2022-08-05T12:32:12.614Z,34.43
2022-08-05T12:34:42.574Z,34.27
2022-08-05T12:37:17.297Z,33.55
2022-08-05T12:39:51.095Z,33.35
2022-08-05T12:42:25.344Z,33.04
2022-08-05T12:44:55.262Z,33.02
2022-08-05T12:47:34.290Z,32.78
2022-08-05T12:50:15.150Z,32.56
2022-08-05T12:52:45.877Z,32.90
2022-08-05T12:55:22.792Z,32.80
2022-08-05T12:58:38.452Z,31.85
2022-08-05T13:01:59.712Z,32.12
2022-08-05T13:03:43.297Z,32.23
2022-08-05T13:06:18.328Z,32.25
2022-08-05T13:08:52.245Z,32.22
2022-08-05T13:11:59.982Z,32.27
2022-08-05T13:14:24.793Z,32.33
2022-08-05T13:17:11.048Z,32.21
2022-08-05T13:19:52.633Z,32.24
2022-08-05T13:22:28.184Z,32.27
2022-08-05T13:25:05.231Z,32.38
2022-08-05T13:27:39.035Z,32.25
2022-08-05T13:30:34.013Z,32.41
2022-08-05T13:33:02.163Z,32.73
2022-08-05T13:35:46.974Z,33.02
2022-08-05T13:38:30.809Z,33.34
2022-08-05T13:41:03.876Z,33.58
2022-08-05T13:43:44.246Z,33.80
2022-08-05T13:46:50.820Z,33.94
2022-08-05T13:49:11.682Z,33.75
2022-08-05T13:51:46.198Z,33.87
2022-08-05T13:54:17.183Z,33.78
2022-08-05T13:56:52.026Z,34.01
2022-08-05T13:59:24.060Z,34.04
2022-08-05T14:01:56.384Z,34.12
2022-08-05T14:04:40.956Z,34.17
2022-08-05T14:07:56.442Z,34.25
2022-08-05T14:10:04.584Z,34.14
2022-08-05T14:12:38.203Z,34.13
2022-08-05T14:16:05.346Z,34.06
2022-08-05T14:18:00.726Z,33.88
2022-08-05T14:20:30.958Z,33.84
2022-08-05T14:23:03.653Z,33.71
2022-08-05T14:25:33.344Z,33.38
2022-08-05T14:28:03.503Z,33.10
2022-08-05T14:30:33.233Z,32.76
2022-08-05T14:33:04.771Z,32.50
2022-08-05T14:35:36.266Z,32.24
2022-08-05T14:38:32.655Z,32.04
2022-08-05T14:41:07.859Z,31.86
2022-08-05T14:44:00.194Z,31.55
2022-08-05T14:46:30.802Z,31.38
2022-08-05T14:49:03.490Z,31.27
2022-08-05T14:51:38.020Z,31.21
2022-08-05T14:54:30.132Z,31.01
2022-08-05T14:57:05.071Z,30.86
2022-08-05T14:59:35.376Z,30.52
2022-08-05T15:02:15.865Z,30.27
2022-08-05T15:04:47.860Z,29.89
2022-08-05T15:08:12.300Z,29.68
2022-08-05T15:10:12.131Z,29.45
2022-08-05T15:13:00.455Z,29.28
2022-08-05T15:15:54.867Z,29.16
2022-08-05T15:18:21.692Z,28.99
2022-08-05T15:20:51.388Z,29.07
2022-08-05T15:23:21.231Z,28.96
2022-08-05T15:25:55.916Z,28.96
2022-08-05T15:28:28.235Z,28.82
2022-08-05T15:30:59.639Z,28.93
2022-08-05T15:34:05.113Z,28.79
2022-08-05T15:36:24.141Z,28.71
2022-08-05T15:40:41.534Z,28.12
2022-08-05T15:41:58.441Z,28.01
2022-08-05T15:44:30.129Z,27.79
2022-08-05T15:47:00.531Z,27.79
2022-08-05T15:49:55.173Z,27.81
2022-08-05T15:52:29.509Z,27.74
2022-08-05T15:55:15.446Z,27.82
2022-08-05T15:57:49.101Z,27.71
2022-08-05T16:00:26.358Z,27.59
2022-08-05T16:03:09.289Z,27.67
2022-08-05T16:05:39.350Z,27.62
2022-08-05T16:08:11.557Z,27.58
2022-08-05T16:10:45.823Z,27.49
2022-08-05T16:13:23.590Z,27.56
2022-08-05T16:15:53.987Z,27.44
2022-08-05T16:18:28.058Z,27.31
2022-08-05T16:21:00.074Z,27.30
2022-08-05T16:23:53.167Z,27.29
2022-08-05T16:26:26.535Z,27.31
2022-08-05T16:28:59.328Z,27.25
2022-08-05T16:31:56.089Z,27.19
2022-08-05T16:34:18.787Z,27.08
2022-08-05T16:36:48.579Z,27.21
2022-08-05T16:39:18.812Z,27.17
2022-08-05T16:42:13.585Z,27.15
2022-08-05T16:44:42.735Z,27.16
2022-08-05T16:47:28.682Z,27.04
2022-08-05T16:50:03.765Z,27.04
2022-08-05T16:52:33.814Z,27.03
2022-08-05T16:55:04.191Z,27.09
2022-08-05T16:57:48.631Z,27.02
2022-08-05T17:00:34.570Z,26.92
2022-08-05T17:03:09.295Z,26.77
2022-08-05T17:05:53.892Z,26.75
2022-08-05T17:08:36.041Z,26.77
2022-08-05T17:11:18.748Z,26.68
2022-08-05T17:13:49.202Z,26.49
2022-08-05T17:16:32.842Z,26.47
2022-08-05T17:19:03.642Z,26.45
2022-08-05T17:21:37.749Z,26.39
2022-08-05T17:24:28.123Z,26.38
2022-08-05T17:27:01.196Z,26.39
2022-08-05T17:29:33.485Z,26.34
2022-08-05T17:32:17.093Z,26.33
2022-08-05T17:34:49.263Z,26.35
2022-08-05T17:37:39.800Z,26.28
2022-08-05T17:40:12.769Z,26.32
2022-08-05T17:42:51.882Z,26.26
2022-08-05T17:45:37.909Z,26.22
2022-08-05T17:48:11.264Z,26.15
2022-08-05T17:50:41.029Z,26.18
2022-08-05T17:53:11.086Z,26.20
2022-08-05T17:55:41.486Z,26.08
2022-08-05T17:58:13.530Z,26.04
2022-08-05T18:00:47.438Z,25.91
2022-08-05T18:06:15.309Z,25.84
2022-08-05T18:08:52.443Z,25.81
2022-08-05T18:11:32.922Z,25.82
2022-08-05T18:14:07.347Z,25.79
2022-08-05T18:16:47.023Z,25.73
2022-08-05T18:19:25.832Z,25.69
2022-08-05T18:22:08.806Z,25.62
2022-08-05T18:24:41.086Z,25.51
2022-08-05T18:27:12.482Z,25.45
2022-08-05T18:29:42.393Z,25.35
2022-08-05T18:32:20.282Z,25.34
2022-08-05T18:34:52.536Z,25.18
2022-08-05T18:37:34.458Z,25.07
2022-08-05T18:40:34.071Z,24.97
2022-08-05T18:43:01.048Z,25.08
2022-08-05T18:45:41.326Z,25.04
2022-08-05T18:48:11.984Z,25.12
2022-08-05T18:52:06.151Z,25.14
2022-08-05T18:54:05.657Z,25.09
2022-08-05T18:56:35.348Z,24.88
2022-08-05T18:59:41.988Z,24.92
2022-08-05T19:01:57.909Z,24.88
2022-08-05T19:04:29.470Z,24.86
2022-08-05T19:07:01.725Z,24.90
2022-08-05T19:09:39.037Z,24.88
2022-08-05T19:12:11.430Z,24.78
2022-08-05T19:15:00.644Z,24.78
2022-08-05T19:17:59.605Z,24.73
2022-08-05T19:20:21.818Z,24.65
2022-08-05T19:22:56.031Z,24.56
2022-08-05T19:25:30.098Z,24.62
2022-08-05T19:28:00.920Z,24.57
2022-08-05T19:30:30.657Z,24.53
2022-08-05T19:33:00.323Z,24.45
2022-08-05T19:35:55.915Z,24.41
2022-08-05T19:38:26.697Z,24.38
2022-08-05T19:40:56.550Z,24.30
2022-08-05T19:44:04.208Z,24.34
2022-08-05T19:46:16.726Z,24.22
2022-08-05T19:49:01.110Z,24.16
2022-08-05T19:52:04.551Z,24.16
2022-08-05T19:54:30.946Z,24.21
2022-08-05T19:57:02.140Z,24.17
2022-08-05T19:59:56.102Z,24.07
2022-08-05T20:02:22.827Z,24.02
2022-08-05T20:04:52.839Z,24.05
2022-08-05T20:07:48.237Z,24.02
2022-08-05T20:10:14.984Z,23.98
2022-08-05T20:12:46.408Z,23.99
2022-08-05T20:15:48.177Z,23.96
2022-08-05T20:18:10.602Z,23.88
2022-08-05T20:20:59.859Z,23.68
2022-08-05T20:23:40.656Z,23.60
2022-08-05T20:26:24.756Z,23.52
2022-08-05T20:29:00.502Z,23.48
2022-08-05T20:31:43.112Z,23.45
2022-08-05T20:34:21.035Z,23.47
2022-08-05T20:36:50.757Z,23.21
2022-08-05T20:39:21.054Z,23.08
2022-08-05T20:41:53.527Z,22.99
2022-08-05T20:44:31.128Z,22.89
2022-08-05T20:47:03.211Z,22.67
2022-08-05T20:49:39.450Z,22.67
2022-08-05T20:52:12.325Z,22.74
2022-08-05T20:54:58.903Z,22.69
2022-08-05T20:57:43.212Z,22.65
2022-08-05T21:00:35.048Z,22.73
2022-08-05T21:03:08.199Z,22.71
2022-08-05T21:05:54.250Z,22.54
2022-08-05T21:08:26.604Z,22.47
2022-08-05T21:11:10.073Z,22.43
2022-08-05T21:13:55.612Z,22.51
2022-08-05T21:16:29.713Z,22.52
2022-08-05T21:19:01.081Z,22.38
2022-08-05T21:21:44.216Z,22.52
2022-08-05T21:24:20.473Z,22.45
2022-08-05T21:26:53.517Z,22.50
2022-08-05T21:29:31.687Z,22.46
2022-08-05T21:32:02.169Z,22.37
2022-08-05T21:34:32.940Z,22.18
2022-08-05T21:37:05.220Z,22.14
2022-08-05T21:39:40.393Z,22.15
2022-08-05T21:42:30.620Z,22.18
2022-08-05T21:45:03.507Z,22.00
2022-08-05T21:47:55.656Z,22.06
2022-08-05T21:50:23.774Z,21.80
2022-08-05T21:52:53.547Z,21.83
2022-08-05T21:55:42.891Z,21.84
2022-08-05T21:58:13.289Z,21.59
2022-08-05T22:00:51.453Z,21.67
2022-08-05T22:03:48.905Z,21.48
2022-08-05T22:06:11.299Z,21.35
2022-08-05T22:08:42.534Z,21.16
2022-08-05T22:11:15.739Z,21.11
2022-08-05T22:14:19.653Z,21.11
2022-08-05T22:16:42.053Z,20.92
2022-08-05T22:20:00.917Z,20.95
2022-08-05T22:22:11.420Z,21.08
2022-08-05T22:24:55.859Z,21.15
2022-08-05T22:28:10.455Z,21.10
2022-08-05T22:30:34.919Z,20.97
2022-08-05T22:33:15.484Z,20.84
2022-08-05T22:35:47.982Z,20.89
2022-08-05T22:38:19.767Z,20.88
2022-08-05T22:40:54.889Z,20.74
2022-08-05T22:43:37.091Z,20.74
2022-08-05T22:46:12.065Z,20.70
2022-08-05T22:48:53.179Z,20.58
2022-08-05T22:52:02.707Z,20.57
2022-08-05T22:54:12.641Z,20.59
2022-08-05T22:56:42.941Z,20.49
2022-08-05T22:59:43.784Z,20.58
2022-08-05T23:02:04.418Z,20.50
2022-08-05T23:04:39.684Z,20.31
2022-08-05T23:07:09.908Z,20.22
2022-08-05T23:09:57.579Z,20.16
2022-08-05T23:12:32.604Z,20.22
2022-08-05T23:15:08.456Z,20.15
2022-08-05T23:18:02.396Z,20.13
2022-08-05T23:20:32.390Z,20.08
2022-08-05T23:23:03.527Z,19.96
2022-08-05T23:25:51.305Z,20.01
2022-08-05T23:28:29.041Z,20.00
2022-08-05T23:31:02.267Z,19.98
2022-08-05T23:34:05.505Z,20.00
2022-08-05T23:36:44.359Z,19.94
2022-08-05T23:39:16.581Z,20.00
2022-08-05T23:41:53.877Z,19.98
2022-08-05T23:44:27.903Z,20.02
2022-08-05T23:47:02.634Z,19.98
2022-08-05T23:49:45.548Z,20.03
2022-08-05T23:52:31.681Z,20.00
2022-08-05T23:55:05.473Z,19.96
2022-08-05T23:57:37.639Z,19.97
